createdAt,value
2022-11-30T00:00:14.132Z,200.50
2022-11-30T00:01:14.121Z,184.90
2022-11-30T00:02:14.266Z,121.00
2022-11-30T00:03:14.320Z,117.40
2022-11-30T00:04:14.097Z,102.20
2022-11-30T00:05:14.080Z,132.80
2022-11-30T00:06:14.070Z,134.30
2022-11-30T00:07:14.082Z,169.90
2022-11-30T00:08:14.050Z,169.40
2022-11-30T00:09:14.048Z,132.30
2022-11-30T00:10:14.023Z,134.80
2022-11-30T00:11:14.014Z,151.80
2022-11-30T00:12:13.997Z,334.60
2022-11-30T00:13:13.984Z,269.80
2022-11-30T00:14:13.994Z,148.10
2022-11-30T00:15:14.026Z,159.20
2022-11-30T00:16:14.035Z,188.00
2022-11-30T00:17:13.947Z,88.60
2022-11-30T00:18:13.937Z,39.70
2022-11-30T00:19:13.937Z,72.60
2022-11-30T00:20:13.912Z,98.70
2022-11-30T00:21:13.914Z,99.30
2022-11-30T00:22:13.894Z,81.00
2022-11-30T00:23:13.900Z,95.90
2022-11-30T00:24:13.866Z,74.30
2022-11-30T00:25:13.873Z,90.10
2022-11-30T00:26:13.846Z,144.50
2022-11-30T00:27:13.846Z,350.00
2022-11-30T00:28:13.830Z,184.70
2022-11-30T00:29:13.815Z,208.90
2022-11-30T00:30:13.802Z,202.20
2022-11-30T00:31:14.031Z,237.20
2022-11-30T00:32:13.775Z,197.00
2022-11-30T00:33:13.773Z,192.00
2022-11-30T00:34:21.289Z,142.00
2022-11-30T00:35:21.732Z,218.80
2022-11-30T00:36:21.271Z,197.80
2022-11-30T00:37:21.240Z,136.40
2022-11-30T00:38:13.714Z,113.00
2022-11-30T00:39:21.236Z,148.20
2022-11-30T00:40:22.216Z,174.40
2022-11-30T00:41:21.303Z,186.30
2022-11-30T00:42:21.197Z,193.70
2022-11-30T00:43:21.180Z,182.40
2022-11-30T00:44:21.170Z,214.30
2022-11-30T00:45:13.642Z,186.50
2022-11-30T00:46:13.698Z,214.30
2022-11-30T00:47:13.655Z,246.30
2022-11-30T00:48:13.603Z,212.30
2022-11-30T00:49:13.608Z,271.40
2022-11-30T00:50:21.113Z,205.00
2022-11-30T00:51:21.432Z,242.20
2022-11-30T00:52:13.562Z,280.20
2022-11-30T00:53:13.553Z,268.10
2022-11-30T00:54:13.558Z,245.90
2022-11-30T00:55:13.532Z,272.30
2022-11-30T00:56:13.526Z,278.40
2022-11-30T00:57:13.508Z,237.70
2022-11-30T00:58:13.497Z,225.30
2022-11-30T00:59:13.545Z,264.50
2022-11-30T01:00:13.495Z,187.50
2022-11-30T01:01:13.554Z,317.70
2022-11-30T01:02:13.532Z,298.10
2022-11-30T01:03:13.473Z,314.70
2022-11-30T01:04:13.432Z,311.20
2022-11-30T01:05:13.423Z,297.10
2022-11-30T01:06:13.425Z,296.30
2022-11-30T01:07:13.399Z,215.30
2022-11-30T01:08:13.393Z,204.30
2022-11-30T01:09:13.382Z,194.90
2022-11-30T01:10:13.365Z,88.60
2022-11-30T01:11:13.354Z,177.30
2022-11-30T01:12:13.353Z,228.10
2022-11-30T01:13:13.337Z,289.80
2022-11-30T01:14:13.327Z,216.00
2022-11-30T01:15:13.313Z,307.00
2022-11-30T01:16:13.348Z,291.90
2022-11-30T01:17:13.292Z,317.20
2022-11-30T01:18:13.305Z,211.70
2022-11-30T01:19:13.297Z,168.30
2022-11-30T01:20:13.256Z,309.90
2022-11-30T01:21:13.244Z,320.30
2022-11-30T01:22:13.233Z,229.60
2022-11-30T01:23:13.222Z,180.70
2022-11-30T01:24:13.228Z,150.10
2022-11-30T01:25:13.212Z,207.40
2022-11-30T01:26:13.189Z,117.00
2022-11-30T01:27:13.184Z,89.00
2022-11-30T01:28:13.164Z,214.40
2022-11-30T01:29:13.154Z,242.20
2022-11-30T01:30:13.153Z,178.00
2022-11-30T01:31:13.191Z,144.80
2022-11-30T01:32:13.124Z,209.20
2022-11-30T01:33:13.115Z,340.20
2022-11-30T01:34:13.103Z,153.70
2022-11-30T01:35:13.112Z,183.50
2022-11-30T01:36:13.086Z,254.90
2022-11-30T01:37:13.067Z,297.40
2022-11-30T01:38:13.067Z,269.50
2022-11-30T01:39:13.052Z,269.70
2022-11-30T01:40:13.029Z,235.80
2022-11-30T01:41:13.021Z,148.20
2022-11-30T01:42:13.022Z,164.30
2022-11-30T01:43:12.998Z,153.40
2022-11-30T01:44:18.156Z,184.80
2022-11-30T01:45:13.977Z,308.60
2022-11-30T01:46:13.005Z,310.80
2022-11-30T01:47:12.959Z,318.80
2022-11-30T01:48:12.952Z,336.40
2022-11-30T01:49:12.930Z,301.70
2022-11-30T01:50:12.986Z,369.90
2022-11-30T01:51:12.942Z,378.00
2022-11-30T01:52:12.898Z,324.10
2022-11-30T01:53:12.899Z,308.50
2022-11-30T01:54:12.875Z,277.70
2022-11-30T01:55:12.878Z,240.10
2022-11-30T01:56:12.889Z,70.10
2022-11-30T01:57:12.847Z,79.40
2022-11-30T01:58:12.833Z,34.30
2022-11-30T01:59:12.821Z,130.80
2022-11-30T02:00:12.816Z,64.30
2022-11-30T02:01:12.848Z,214.60
2022-11-30T02:02:12.857Z,207.80
2022-11-30T02:03:12.777Z,264.80
2022-11-30T02:04:12.770Z,240.90
2022-11-30T02:05:12.756Z,157.30
2022-11-30T02:06:12.748Z,134.20
2022-11-30T02:07:12.814Z,222.50
2022-11-30T02:08:12.869Z,241.00
2022-11-30T02:09:12.710Z,257.10
2022-11-30T02:10:12.703Z,265.70
2022-11-30T02:11:12.687Z,284.10
2022-11-30T02:12:12.677Z,206.30
2022-11-30T02:13:12.681Z,228.70
2022-11-30T02:14:12.713Z,175.60
2022-11-30T02:15:12.645Z,213.60
2022-11-30T02:16:12.695Z,182.40
2022-11-30T02:17:12.625Z,233.20
2022-11-30T02:18:12.610Z,213.60
2022-11-30T02:19:12.601Z,291.20
2022-11-30T02:20:12.592Z,300.50
2022-11-30T02:21:12.583Z,291.70
2022-11-30T02:22:12.583Z,193.20
2022-11-30T02:23:12.580Z,214.40
2022-11-30T02:24:12.545Z,312.70
2022-11-30T02:25:12.554Z,232.50
2022-11-30T02:26:12.572Z,231.60
2022-11-30T02:27:12.516Z,169.60
2022-11-30T02:28:12.502Z,230.90
2022-11-30T02:29:12.501Z,255.40
2022-11-30T02:30:12.488Z,179.00
2022-11-30T02:31:12.538Z,315.30
2022-11-30T02:32:12.465Z,256.10
2022-11-30T02:33:12.447Z,270.00
2022-11-30T02:34:12.450Z,211.40
2022-11-30T02:35:12.434Z,241.90
2022-11-30T02:36:12.411Z,210.00
2022-11-30T02:37:12.400Z,223.70
2022-11-30T02:38:12.398Z,216.60
2022-11-30T02:39:12.403Z,191.40
2022-11-30T02:40:12.480Z,191.40
2022-11-30T02:41:12.358Z,179.10
2022-11-30T02:42:12.347Z,240.90
2022-11-30T02:43:12.345Z,263.30
2022-11-30T02:44:12.327Z,232.90
2022-11-30T02:45:12.312Z,209.20
2022-11-30T02:46:12.359Z,207.10
2022-11-30T02:47:12.286Z,131.10
2022-11-30T02:48:12.279Z,191.10
2022-11-30T02:49:12.271Z,125.60
2022-11-30T02:50:12.262Z,117.60
2022-11-30T02:51:12.247Z,189.60
2022-11-30T02:52:12.355Z,152.70
2022-11-30T02:53:12.229Z,171.80
2022-11-30T02:54:12.215Z,137.90
2022-11-30T02:55:12.228Z,127.40
2022-11-30T02:56:12.193Z,77.90
2022-11-30T02:57:12.191Z,127.60
2022-11-30T02:58:12.193Z,135.10
2022-11-30T02:59:12.159Z,125.10
2022-11-30T03:00:12.157Z,144.90
2022-11-30T03:01:12.178Z,140.70
2022-11-30T03:02:12.124Z,173.60
2022-11-30T03:03:12.117Z,204.90
2022-11-30T03:04:12.125Z,216.70
2022-11-30T03:05:12.111Z,234.30
2022-11-30T03:06:12.080Z,159.70
2022-11-30T03:07:12.073Z,228.50
2022-11-30T03:08:12.062Z,190.30
2022-11-30T03:09:12.046Z,291.40
2022-11-30T03:10:12.059Z,209.50
2022-11-30T03:11:12.048Z,217.70
2022-11-30T03:12:12.014Z,251.40
2022-11-30T03:13:12.000Z,216.10
2022-11-30T03:14:11.999Z,251.60
2022-11-30T03:15:11.989Z,252.60
2022-11-30T03:16:12.277Z,230.10
2022-11-30T03:17:11.963Z,163.90
2022-11-30T03:18:11.952Z,251.90
2022-11-30T03:19:11.977Z,180.60
2022-11-30T03:20:11.929Z,232.60
2022-11-30T03:21:11.926Z,201.40
2022-11-30T03:22:11.909Z,191.40
2022-11-30T03:23:11.890Z,199.80
2022-11-30T03:24:11.883Z,186.70
2022-11-30T03:25:11.871Z,214.00
2022-11-30T03:26:11.875Z,206.20
2022-11-30T03:27:11.881Z,226.90
2022-11-30T03:28:11.846Z,232.90
2022-11-30T03:29:11.830Z,186.00
2022-11-30T03:30:11.816Z,183.60
2022-11-30T03:31:11.909Z,239.30
2022-11-30T03:32:11.804Z,199.90
2022-11-30T03:33:11.781Z,234.20
2022-11-30T03:34:11.784Z,207.10
2022-11-30T03:35:11.760Z,216.20
2022-11-30T03:36:11.750Z,183.30
2022-11-30T03:37:11.743Z,261.00
2022-11-30T03:38:11.738Z,243.70
2022-11-30T03:39:11.712Z,213.00
2022-11-30T03:40:11.708Z,272.60
2022-11-30T03:41:11.691Z,300.70
2022-11-30T03:42:11.784Z,275.30
2022-11-30T03:43:11.696Z,211.30
2022-11-30T03:44:11.662Z,145.20
2022-11-30T03:45:11.649Z,106.80
2022-11-30T03:46:11.703Z,204.30
2022-11-30T03:47:11.624Z,162.50
2022-11-30T03:48:11.624Z,189.40
2022-11-30T03:49:11.607Z,218.40
2022-11-30T03:50:11.590Z,261.30
2022-11-30T03:51:11.608Z,251.50
2022-11-30T03:52:11.579Z,215.20
2022-11-30T03:53:11.559Z,154.40
2022-11-30T03:54:11.557Z,192.40
2022-11-30T03:55:11.541Z,213.40
2022-11-30T03:56:11.536Z,248.80
2022-11-30T03:57:11.525Z,233.60
2022-11-30T03:58:11.559Z,241.20
2022-11-30T03:59:11.533Z,216.30
2022-11-30T04:00:11.486Z,323.00
2022-11-30T04:01:11.469Z,212.80
2022-11-30T04:02:11.524Z,209.40
2022-11-30T04:03:11.490Z,239.40
2022-11-30T04:04:11.444Z,259.30
2022-11-30T04:05:11.428Z,186.20
2022-11-30T04:06:11.418Z,242.50
2022-11-30T04:07:11.405Z,246.70
2022-11-30T04:08:11.406Z,290.90
2022-11-30T04:09:11.395Z,192.80
2022-11-30T04:10:11.386Z,289.20
2022-11-30T04:11:11.362Z,288.50
2022-11-30T04:12:11.354Z,292.70
2022-11-30T04:13:11.338Z,264.60
2022-11-30T04:14:11.339Z,313.90
2022-11-30T04:15:11.348Z,269.70
2022-11-30T04:16:11.404Z,245.50
2022-11-30T04:17:11.295Z,219.80
2022-11-30T04:18:11.286Z,250.10
2022-11-30T04:19:11.273Z,204.90
2022-11-30T04:20:11.262Z,236.20
2022-11-30T04:21:11.249Z,211.40
2022-11-30T04:22:11.310Z,228.50
2022-11-30T04:23:11.232Z,194.30
2022-11-30T04:24:11.217Z,206.40
2022-11-30T04:25:11.205Z,192.80
2022-11-30T04:26:11.207Z,216.10
2022-11-30T04:27:11.197Z,191.30
2022-11-30T04:28:11.197Z,211.70
2022-11-30T04:29:11.178Z,166.80
2022-11-30T04:30:11.149Z,175.80
2022-11-30T04:31:11.237Z,163.30
2022-11-30T04:32:11.142Z,187.60
2022-11-30T04:33:11.119Z,195.50
2022-11-30T04:34:11.121Z,158.50
2022-11-30T04:35:11.103Z,156.70
2022-11-30T04:36:11.087Z,161.50
2022-11-30T04:37:11.073Z,161.40
2022-11-30T04:38:11.080Z,141.30
2022-11-30T04:39:11.057Z,166.20
2022-11-30T04:40:11.044Z,155.50
2022-11-30T04:41:11.142Z,125.90
2022-11-30T04:42:11.023Z,78.70
2022-11-30T04:43:11.008Z,90.60
2022-11-30T04:44:11.001Z,94.10
2022-11-30T04:45:10.991Z,103.80
2022-11-30T04:46:11.056Z,85.70
2022-11-30T04:47:11.007Z,113.30
2022-11-30T04:48:10.959Z,64.30
2022-11-30T04:49:10.951Z,119.80
2022-11-30T04:50:10.938Z,102.10
2022-11-30T04:51:10.924Z,94.30
2022-11-30T04:52:10.921Z,105.00
2022-11-30T04:53:11.009Z,95.10
2022-11-30T04:54:10.897Z,88.60
2022-11-30T04:55:10.880Z,64.10
2022-11-30T04:56:10.874Z,111.90
2022-11-30T04:57:10.859Z,131.70
2022-11-30T04:58:10.863Z,123.80
2022-11-30T04:59:10.943Z,130.00
2022-11-30T05:00:10.824Z,165.40
2022-11-30T05:01:10.824Z,167.00
2022-11-30T05:02:10.806Z,146.40
2022-11-30T05:03:10.819Z,182.80
2022-11-30T05:04:10.823Z,164.00
2022-11-30T05:05:10.788Z,134.20
2022-11-30T05:06:10.778Z,145.90
2022-11-30T05:07:10.755Z,148.50
2022-11-30T05:08:10.741Z,118.50
2022-11-30T05:09:10.736Z,106.80
2022-11-30T05:10:10.772Z,111.80
2022-11-30T05:11:10.713Z,123.00
2022-11-30T05:12:10.713Z,85.80
2022-11-30T05:13:10.691Z,77.70
2022-11-30T05:14:10.680Z,108.70
2022-11-30T05:15:10.663Z,122.90
2022-11-30T05:16:10.761Z,120.90
2022-11-30T05:17:10.647Z,113.90
2022-11-30T05:18:10.648Z,102.70
2022-11-30T05:19:10.652Z,108.60
2022-11-30T05:20:10.612Z,142.90
2022-11-30T05:21:10.614Z,194.10
2022-11-30T05:22:10.590Z,140.60
2022-11-30T05:23:10.575Z,165.90
2022-11-30T05:24:10.582Z,146.60
2022-11-30T05:25:10.581Z,130.00
2022-11-30T05:26:10.545Z,160.20
2022-11-30T05:27:14.439Z,150.50
2022-11-30T05:28:11.548Z,137.30
2022-11-30T05:29:10.514Z,154.10
2022-11-30T05:30:10.510Z,138.00
2022-11-30T05:31:10.537Z,141.90
2022-11-30T05:32:10.486Z,125.30
2022-11-30T05:33:10.471Z,138.00
2022-11-30T05:34:10.462Z,172.20
2022-11-30T05:35:10.491Z,180.90
2022-11-30T05:36:11.130Z,166.30
2022-11-30T05:37:10.426Z,124.30
2022-11-30T05:38:10.412Z,148.20
2022-11-30T05:39:10.408Z,109.90
2022-11-30T05:40:10.393Z,130.10
2022-11-30T05:41:10.410Z,122.30
2022-11-30T05:42:10.374Z,178.60
2022-11-30T05:43:10.359Z,123.30
2022-11-30T05:44:10.356Z,126.60
2022-11-30T05:45:10.341Z,120.80
2022-11-30T05:46:10.329Z,122.90
2022-11-30T05:47:10.451Z,107.30
2022-11-30T05:48:10.315Z,97.80
2022-11-30T05:49:10.300Z,77.00
2022-11-30T05:50:10.284Z,40.60
2022-11-30T05:51:10.299Z,28.30
2022-11-30T05:52:10.258Z,71.30
2022-11-30T05:53:10.250Z,61.30
2022-11-30T05:54:10.248Z,108.90
2022-11-30T05:55:10.232Z,102.50
2022-11-30T05:56:10.219Z,96.40
2022-11-30T05:57:10.203Z,104.50
2022-11-30T05:58:10.192Z,76.50
2022-11-30T05:59:10.288Z,103.30
2022-11-30T06:00:10.173Z,119.90
2022-11-30T06:01:10.215Z,106.10
2022-11-30T06:02:10.251Z,100.40
2022-11-30T06:03:10.312Z,139.50
2022-11-30T06:04:10.130Z,135.80
2022-11-30T06:05:10.129Z,123.20
2022-11-30T06:06:10.107Z,93.60
2022-11-30T06:07:10.130Z,126.10
2022-11-30T06:08:10.087Z,110.20
2022-11-30T06:09:10.076Z,114.50
2022-11-30T06:10:10.068Z,136.90
2022-11-30T06:11:10.057Z,133.20
2022-11-30T06:12:10.040Z,92.20
2022-11-30T06:13:10.034Z,108.40
2022-11-30T06:14:10.019Z,98.50
2022-11-30T06:15:10.004Z,74.00
2022-11-30T06:16:10.128Z,112.50
2022-11-30T06:17:09.986Z,69.80
2022-11-30T06:18:09.976Z,77.70
2022-11-30T06:19:09.982Z,89.00
2022-11-30T06:20:09.979Z,102.00
2022-11-30T06:21:09.943Z,104.40
2022-11-30T06:22:09.943Z,108.20
2022-11-30T06:23:09.958Z,101.90
2022-11-30T06:24:09.922Z,99.10
2022-11-30T06:25:09.904Z,92.90
2022-11-30T06:26:09.892Z,107.70
2022-11-30T06:27:09.875Z,102.60
2022-11-30T06:28:09.869Z,97.40
2022-11-30T06:29:09.867Z,90.70
2022-11-30T06:30:09.845Z,80.30
2022-11-30T06:31:09.930Z,81.30
2022-11-30T06:32:09.818Z,114.40
2022-11-30T06:33:09.816Z,88.90
2022-11-30T06:34:09.800Z,104.10
2022-11-30T06:35:09.796Z,82.50
2022-11-30T06:36:09.789Z,114.60
2022-11-30T06:37:09.772Z,93.40
2022-11-30T06:38:09.763Z,37.10
2022-11-30T06:39:09.774Z,56.70
2022-11-30T06:40:09.735Z,95.60
2022-11-30T06:41:09.743Z,109.60
2022-11-30T06:42:09.713Z,80.10
2022-11-30T06:43:09.714Z,90.80
2022-11-30T06:44:09.694Z,86.30
2022-11-30T06:45:09.675Z,88.40
2022-11-30T06:46:09.779Z,102.60
2022-11-30T06:47:09.665Z,80.00
2022-11-30T06:48:09.645Z,36.90
2022-11-30T06:49:09.634Z,84.10
2022-11-30T06:50:09.633Z,71.80
2022-11-30T06:51:09.611Z,47.60
2022-11-30T06:52:09.611Z,71.70
2022-11-30T06:53:09.585Z,42.80
2022-11-30T06:54:09.583Z,34.10
2022-11-30T06:55:09.606Z,9.10
2022-11-30T06:56:10.729Z,8.30
2022-11-30T06:57:09.544Z,13.40
2022-11-30T06:58:09.547Z,14.60
2022-11-30T06:59:09.534Z,6.20
2022-11-30T07:00:09.511Z,6.40
2022-11-30T07:01:09.730Z,105.10
2022-11-30T07:02:13.079Z,98.10
2022-11-30T07:03:10.482Z,102.30
2022-11-30T07:04:09.527Z,121.70
2022-11-30T07:05:09.469Z,113.10
2022-11-30T07:06:09.448Z,80.40
2022-11-30T07:07:09.495Z,98.00
2022-11-30T07:08:09.419Z,107.20
2022-11-30T07:09:09.410Z,126.20
2022-11-30T07:10:09.406Z,247.30
2022-11-30T07:11:09.431Z,118.30
2022-11-30T07:12:09.393Z,105.10
2022-11-30T07:13:09.373Z,208.60
2022-11-30T07:14:09.359Z,252.60
2022-11-30T07:15:09.348Z,193.80
2022-11-30T07:16:09.395Z,199.90
2022-11-30T07:17:09.338Z,202.90
2022-11-30T07:18:09.315Z,183.50
2022-11-30T07:19:09.309Z,179.60
2022-11-30T07:20:09.300Z,224.80
2022-11-30T07:21:09.283Z,230.20
2022-11-30T07:22:09.278Z,167.00
2022-11-30T07:23:09.266Z,134.20
2022-11-30T07:24:09.247Z,166.60
2022-11-30T07:25:09.247Z,132.50
2022-11-30T07:26:16.796Z,182.20
2022-11-30T07:27:09.218Z,176.70
2022-11-30T07:28:17.082Z,104.00
2022-11-30T07:29:16.714Z,95.20
2022-11-30T07:30:09.181Z,86.80
2022-11-30T07:31:14.779Z,109.70
2022-11-30T07:32:10.206Z,94.10
2022-11-30T07:33:09.163Z,94.90
2022-11-30T07:34:09.157Z,90.50
2022-11-30T07:35:16.662Z,92.40
2022-11-30T07:36:09.118Z,92.50
2022-11-30T07:37:09.105Z,96.10
2022-11-30T07:38:10.017Z,94.10
2022-11-30T07:39:09.086Z,115.70
2022-11-30T07:40:09.076Z,122.10
2022-11-30T07:41:09.068Z,99.60
2022-11-30T07:42:09.081Z,130.20
2022-11-30T07:43:09.050Z,137.40
2022-11-30T07:44:09.047Z,172.50
2022-11-30T07:45:09.179Z,136.40
2022-11-30T07:46:09.068Z,113.10
2022-11-30T07:47:09.000Z,89.60
2022-11-30T07:48:08.990Z,117.50
2022-11-30T07:49:08.977Z,171.90
2022-11-30T07:50:08.980Z,114.40
2022-11-30T07:51:08.965Z,311.40
2022-11-30T07:52:08.966Z,135.10
2022-11-30T07:53:08.933Z,82.60
2022-11-30T07:54:08.916Z,123.00
2022-11-30T07:55:08.916Z,140.70
2022-11-30T07:56:08.917Z,128.00
2022-11-30T07:57:08.898Z,143.30
2022-11-30T07:58:12.867Z,115.50
2022-11-30T07:59:09.867Z,135.40
2022-11-30T08:00:08.864Z,115.00
2022-11-30T08:01:08.948Z,134.50
2022-11-30T08:02:08.942Z,127.20
2022-11-30T08:03:08.837Z,101.50
2022-11-30T08:04:08.915Z,80.20
2022-11-30T08:05:08.798Z,156.90
2022-11-30T08:06:08.792Z,133.10
2022-11-30T08:07:08.880Z,139.30
2022-11-30T08:08:08.763Z,156.00
2022-11-30T08:09:08.756Z,124.60
2022-11-30T08:10:08.749Z,166.00
2022-11-30T08:11:08.734Z,150.10
2022-11-30T08:12:08.734Z,175.60
2022-11-30T08:13:08.727Z,132.20
2022-11-30T08:14:08.741Z,172.90
2022-11-30T08:15:19.738Z,210.80
2022-11-30T08:16:09.676Z,207.70
2022-11-30T08:17:08.722Z,173.00
2022-11-30T08:18:08.656Z,191.10
2022-11-30T08:19:08.656Z,207.30
2022-11-30T08:20:08.635Z,189.40
2022-11-30T08:21:08.629Z,182.70
2022-11-30T08:22:08.609Z,215.80
2022-11-30T08:23:08.604Z,210.30
2022-11-30T08:24:08.641Z,200.80
2022-11-30T08:25:08.595Z,244.70
2022-11-30T08:26:08.570Z,229.10
2022-11-30T08:27:08.558Z,254.70
2022-11-30T08:28:08.552Z,268.10
2022-11-30T08:29:08.535Z,196.40
2022-11-30T08:30:08.557Z,198.00
2022-11-30T08:31:08.589Z,294.40
2022-11-30T08:32:08.498Z,127.50
2022-11-30T08:33:08.500Z,221.00
2022-11-30T08:34:08.484Z,169.90
2022-11-30T08:35:08.478Z,183.40
2022-11-30T08:36:08.464Z,127.50
2022-11-30T08:37:08.452Z,127.60
2022-11-30T08:38:08.442Z,197.40
2022-11-30T08:39:08.432Z,139.60
2022-11-30T08:40:08.409Z,176.50
2022-11-30T08:41:08.405Z,153.60
2022-11-30T08:42:08.402Z,126.90
2022-11-30T08:43:08.390Z,154.50
2022-11-30T08:44:08.366Z,182.40
2022-11-30T08:45:08.381Z,200.10
2022-11-30T08:46:16.148Z,238.40
2022-11-30T08:47:09.374Z,247.10
2022-11-30T08:48:08.326Z,239.80
2022-11-30T08:49:24.815Z,233.60
2022-11-30T08:50:09.318Z,260.70
2022-11-30T08:51:08.295Z,303.80
2022-11-30T08:53:09.271Z,250.00
2022-11-30T08:54:08.261Z,291.80
2022-11-30T08:55:08.264Z,345.00
2022-11-30T08:56:08.251Z,322.00
2022-11-30T08:57:08.226Z,335.30
2022-11-30T08:58:08.217Z,245.60
2022-11-30T08:59:08.207Z,336.50
2022-11-30T09:00:08.192Z,281.70
2022-11-30T09:01:08.192Z,250.90
2022-11-30T09:02:08.305Z,287.70
2022-11-30T09:03:08.161Z,186.20
2022-11-30T09:04:08.152Z,211.50
2022-11-30T09:05:08.144Z,171.70
2022-11-30T09:06:08.140Z,318.50
2022-11-30T09:07:08.119Z,264.40
2022-11-30T09:08:08.180Z,317.30
2022-11-30T09:09:08.099Z,275.10
2022-11-30T09:10:08.099Z,294.90
2022-11-30T09:11:08.100Z,247.50
2022-11-30T09:12:08.087Z,235.80
2022-11-30T09:13:08.067Z,242.70
2022-11-30T09:14:08.042Z,272.40
2022-11-30T09:15:08.027Z,252.20
2022-11-30T09:16:08.072Z,266.20
2022-11-30T09:17:08.016Z,283.20
2022-11-30T09:18:08.031Z,279.20
2022-11-30T09:19:07.984Z,289.10
2022-11-30T09:20:07.979Z,307.60
2022-11-30T09:21:07.962Z,277.80
2022-11-30T09:22:07.971Z,367.30
2022-11-30T09:23:07.936Z,323.30
2022-11-30T09:24:07.928Z,300.60
2022-11-30T09:25:07.912Z,296.10
2022-11-30T09:26:07.910Z,350.50
2022-11-30T09:27:07.903Z,306.20
2022-11-30T09:28:12.136Z,322.60
2022-11-30T09:29:07.875Z,338.30
2022-11-30T09:30:07.863Z,327.80
2022-11-30T09:31:07.922Z,328.60
2022-11-30T09:32:07.844Z,401.60
2022-11-30T09:33:07.828Z,320.90
2022-11-30T09:34:07.876Z,315.80
2022-11-30T09:35:12.617Z,315.70
2022-11-30T09:36:08.797Z,408.80
2022-11-30T09:37:07.782Z,483.80
2022-11-30T09:38:07.783Z,326.40
2022-11-30T09:39:07.761Z,255.00
2022-11-30T09:40:07.764Z,265.00
2022-11-30T09:41:07.742Z,258.40
2022-11-30T09:42:07.731Z,313.60
2022-11-30T09:43:07.719Z,370.80
2022-11-30T09:44:07.722Z,323.60
2022-11-30T09:45:07.701Z,311.90
2022-11-30T09:46:07.787Z,321.50
2022-11-30T09:47:07.693Z,368.90
2022-11-30T09:48:07.667Z,349.90
2022-11-30T09:50:26.021Z,352.30
2022-11-30T09:51:25.964Z,395.20
2022-11-30T09:52:25.951Z,491.40
2022-11-30T09:53:29.522Z,422.50
2022-11-30T09:54:25.944Z,298.40
2022-11-30T09:55:25.920Z,262.30
2022-11-30T09:56:25.914Z,271.00
2022-11-30T09:57:25.905Z,374.10
2022-11-30T09:58:25.883Z,372.30
2022-11-30T09:59:25.882Z,428.00
2022-11-30T10:00:25.879Z,431.30
2022-11-30T10:01:29.319Z,382.00
2022-11-30T10:02:27.013Z,390.20
2022-11-30T10:03:25.903Z,415.80
2022-11-30T10:04:25.827Z,462.50
2022-11-30T10:05:25.809Z,413.20
2022-11-30T10:06:25.955Z,384.10
2022-11-30T10:07:25.891Z,408.80
2022-11-30T10:08:25.776Z,447.40
2022-11-30T10:09:25.770Z,498.00
2022-11-30T10:10:33.686Z,495.20
2022-11-30T10:11:26.858Z,442.90
2022-11-30T10:12:25.739Z,405.90
2022-11-30T10:13:25.722Z,440.70
2022-11-30T10:14:25.714Z,521.20
2022-11-30T10:15:25.703Z,493.30
2022-11-30T10:16:25.768Z,455.80
2022-11-30T10:17:25.697Z,372.90
2022-11-30T10:18:25.668Z,448.00
2022-11-30T10:19:25.658Z,364.10
2022-11-30T10:20:25.653Z,501.20
2022-11-30T10:21:25.639Z,527.60
2022-11-30T10:22:25.696Z,592.90
2022-11-30T10:23:25.612Z,690.70
2022-11-30T10:24:25.606Z,725.10
2022-11-30T10:25:25.598Z,484.50
2022-11-30T10:26:25.582Z,486.50
2022-11-30T10:27:25.584Z,374.00
2022-11-30T10:28:46.660Z,373.00
2022-11-30T10:29:26.551Z,353.70
2022-11-30T10:30:25.541Z,331.50
2022-11-30T10:31:25.634Z,360.10
2022-11-30T10:32:25.520Z,466.60
2022-11-30T10:33:25.532Z,443.10
2022-11-30T10:34:25.567Z,371.50
2022-11-30T10:35:25.486Z,351.70
2022-11-30T10:36:25.480Z,458.90
2022-11-30T10:37:25.465Z,455.50
2022-11-30T10:38:25.487Z,392.90
2022-11-30T10:39:25.463Z,398.60
2022-11-30T10:40:25.428Z,415.00
2022-11-30T10:41:25.437Z,529.70
2022-11-30T10:42:25.413Z,429.20
2022-11-30T10:43:25.400Z,468.30
2022-11-30T10:44:25.391Z,566.20
2022-11-30T10:45:25.395Z,355.20
2022-11-30T10:46:25.432Z,378.70
2022-11-30T10:47:25.370Z,345.60
2022-11-30T10:48:25.345Z,329.50
2022-11-30T10:49:25.335Z,293.60
2022-11-30T10:50:25.325Z,542.90
2022-11-30T10:51:25.322Z,283.80
2022-11-30T10:52:25.307Z,294.70
2022-11-30T10:53:25.328Z,417.30
2022-11-30T10:54:25.305Z,426.20
2022-11-30T10:55:25.274Z,393.10
2022-11-30T10:56:25.275Z,442.10
2022-11-30T10:57:25.253Z,435.10
2022-11-30T10:58:25.240Z,350.20
2022-11-30T10:59:25.235Z,317.00
2022-11-30T11:00:25.230Z,396.60
2022-11-30T11:01:25.251Z,281.90
2022-11-30T11:02:25.285Z,342.10
2022-11-30T11:03:25.186Z,574.60
2022-11-30T11:04:25.430Z,450.80
2022-11-30T11:05:25.166Z,416.30
2022-11-30T11:06:25.175Z,537.70
2022-11-30T11:07:25.292Z,752.80
2022-11-30T11:08:25.244Z,710.70
2022-11-30T11:09:25.131Z,626.60
2022-11-30T11:10:25.139Z,663.40
2022-11-30T11:11:25.106Z,581.80
2022-11-30T11:12:25.225Z,739.60
2022-11-30T11:13:25.082Z,678.80
2022-11-30T11:14:25.073Z,803.10
2022-11-30T11:15:25.307Z,866.80
2022-11-30T11:16:25.123Z,789.40
2022-11-30T11:17:25.039Z,663.50
2022-11-30T11:18:25.046Z,759.40
2022-11-30T11:19:25.022Z,558.20
2022-11-30T11:20:25.012Z,432.30
2022-11-30T11:21:25.003Z,520.80
2022-11-30T11:22:24.986Z,798.50
2022-11-30T11:23:24.976Z,629.40
2022-11-30T11:24:25.022Z,720.20
2022-11-30T11:25:24.965Z,558.90
2022-11-30T11:26:24.976Z,661.20
2022-11-30T11:27:24.933Z,695.10
2022-11-30T11:28:24.917Z,577.20
2022-11-30T11:29:24.923Z,583.80
2022-11-30T11:30:24.947Z,276.70
2022-11-30T11:31:24.969Z,492.80
2022-11-30T11:32:24.891Z,341.40
2022-11-30T11:33:24.868Z,241.10
2022-11-30T11:34:24.865Z,637.50
2022-11-30T11:35:24.858Z,595.60
2022-11-30T11:36:24.846Z,872.00
2022-11-30T11:37:24.824Z,694.80
2022-11-30T11:38:24.815Z,569.70
2022-11-30T11:39:24.820Z,544.30
2022-11-30T11:40:24.805Z,599.90
2022-11-30T11:41:24.783Z,488.80
2022-11-30T11:42:24.822Z,533.30
2022-11-30T11:43:24.774Z,818.80
2022-11-30T11:44:24.748Z,634.40
2022-11-30T11:45:24.735Z,801.70
2022-11-30T11:46:24.767Z,455.00
2022-11-30T11:47:24.720Z,304.70
2022-11-30T11:48:28.832Z,343.30
2022-11-30T11:49:24.697Z,439.20
2022-11-30T11:50:57.907Z,453.20
2022-11-30T11:51:25.674Z,175.50
2022-11-30T11:52:24.680Z,115.70
2022-11-30T11:53:24.729Z,122.50
2022-11-30T11:54:24.650Z,515.10
2022-11-30T11:55:24.634Z,511.70
2022-11-30T11:56:24.617Z,644.10
2022-11-30T11:57:24.622Z,618.00
2022-11-30T11:58:24.628Z,558.30
2022-11-30T11:59:29.402Z,420.80
2022-11-30T12:00:25.581Z,108.80
2022-11-30T12:01:39.709Z,246.80
2022-11-30T12:02:25.707Z,531.10
2022-11-30T12:03:24.547Z,494.50
2022-11-30T12:04:24.618Z,488.70
2022-11-30T12:05:24.528Z,626.90
2022-11-30T12:06:24.569Z,839.70
2022-11-30T12:07:24.535Z,460.30
2022-11-30T12:08:24.503Z,370.70
2022-11-30T12:09:24.483Z,206.70
2022-11-30T12:10:54.618Z,302.80
2022-11-30T12:11:25.464Z,403.80
2022-11-30T12:12:24.453Z,464.40
2022-11-30T12:13:24.449Z,587.80
2022-11-30T12:14:24.460Z,730.00
2022-11-30T12:15:24.424Z,807.40
2022-11-30T12:16:24.478Z,850.00
2022-11-30T12:17:24.400Z,779.70
2022-11-30T12:18:24.565Z,619.70
2022-11-30T12:19:24.390Z,560.70
2022-11-30T12:20:24.365Z,456.40
2022-11-30T12:21:24.361Z,898.90
2022-11-30T12:22:24.341Z,388.60
2022-11-30T12:23:24.335Z,349.80
2022-11-30T12:24:24.392Z,564.40
2022-11-30T12:25:24.325Z,657.30
2022-11-30T12:26:24.300Z,675.50
2022-11-30T12:27:24.297Z,536.10
2022-11-30T12:28:24.303Z,984.90
2022-11-30T12:29:24.270Z,1063.60
2022-11-30T12:30:24.319Z,955.70
2022-11-30T12:31:24.317Z,784.90
2022-11-30T12:32:24.246Z,832.00
2022-11-30T12:33:25.340Z,826.70